Time;durP1;ratioP1;P1;durP2;ratioP2;P2;SDS_P1;SDS_P2;PMS_P1;PMS_P2;Temp;Humidity;BMP_temperature;BMP_pressure;BME280_temperature;BME280_humidity;BME280_pressure;Samples;Min_cycle;Max_cycle;Signal;HPM_P1;HPM_P2
2023/05/20 00:00:48;;;;;;;2.13;1.98;;;22.70;51.30;;;;;;5072335;28;20045;-58
2023/05/20 00:03:16;;;;;;;1.90;1.80;;;22.70;51.30;;;;;;5073311;28;20978;-57
2023/05/20 00:05:43;;;;;;;2.25;2.05;;;22.70;51.30;;;;;;5073490;28;20044;-58
2023/05/20 00:08:11;;;;;;;1.85;1.75;;;22.70;51.30;;;;;;5073708;28;20467;-57
2023/05/20 00:10:38;;;;;;;2.00;1.90;;;22.70;51.20;;;;;;5073170;28;20135;-64
2023/05/20 00:13:06;;;;;;;2.05;1.95;;;22.70;51.20;;;;;;5072756;28;20049;-60
2023/05/20 00:15:34;;;;;;;1.95;1.85;;;22.70;51.10;;;;;;5071450;28;20045;-63
2023/05/20 00:18:03;;;;;;;1.80;1.70;;;22.70;51.50;;;;;;5071807;28;20083;-58
2023/05/20 00:20:31;;;;;;;2.15;1.98;;;22.60;51.10;;;;;;5073420;28;20051;-58
2023/05/20 00:22:58;;;;;;;2.22;2.05;;;22.70;51.10;;;;;;5072962;28;20048;-60
2023/05/20 00:25:25;;;;;;;1.70;1.60;;;22.70;51.20;;;;;;5072777;28;20051;-61
2023/05/20 00:27:52;;;;;;;2.70;1.98;;;22.60;51.10;;;;;;5071704;28;20095;-60
2023/05/20 00:30:19;;;;;;;2.30;2.10;;;22.60;51.10;;;;;;5072498;28;20079;-60
2023/05/20 00:32:46;;;;;;;2.10;1.90;;;22.60;51.10;;;;;;5072128;28;20049;-61
2023/05/20 00:35:14;;;;;;;1.90;1.80;;;22.60;51.10;;;;;;5072548;28;20551;-65
2023/05/20 00:37:41;;;;;;;1.80;1.70;;;22.60;51.20;;;;;;5073011;28;20094;-62
2023/05/20 00:40:09;;;;;;;2.00;1.90;;;22.60;51.20;;;;;;5072987;28;20049;-61
2023/05/20 00:42:37;;;;;;;1.80;1.70;;;22.60;51.20;;;;;;5073185;28;20054;-59
2023/05/20 00:45:05;;;;;;;2.25;2.05;;;22.60;51.20;;;;;;5072889;28;20048;-63
2023/05/20 00:47:35;;;;;;;2.28;2.08;;;22.60;51.20;;;;;;5073056;28;20052;-63
2023/05/20 00:50:03;;;;;;;2.00;1.90;;;22.60;51.20;;;;;;5072055;28;20135;-68
2023/05/20 00:52:31;;;;;;;1.92;1.83;;;22.60;51.20;;;;;;5072979;28;20546;-64
2023/05/20 00:54:59;;;;;;;1.92;1.73;;;22.60;51.20;;;;;;5072810;28;20084;-61
2023/05/20 00:57:27;;;;;;;2.10;1.90;;;22.60;51.30;;;;;;5073102;28;20044;-64
2023/05/20 00:59:54;;;;;;;2.22;2.10;;;22.50;51.20;;;;;;5072903;28;20064;-63
2023/05/20 01:02:23;;;;;;;2.03;1.92;;;22.50;51.20;;;;;;5052358;28;20060;-58
2023/05/20 01:04:51;;;;;;;2.67;2.20;;;22.50;51.20;;;;;;5050659;28;20127;-58
2023/05/20 01:07:18;;;;;;;2.15;2.05;;;22.50;51.20;;;;;;5068263;28;20094;-58
2023/05/20 01:09:46;;;;;;;2.90;1.70;;;22.50;51.20;;;;;;5072752;28;20076;-58
2023/05/20 01:12:28;;;;;;;1.92;1.83;;;22.50;51.20;;;;;;5072068;28;20053;-58
2023/05/20 01:15:00;;;;;;;1.80;1.70;;;22.50;51.20;;;;;;5072275;28;20048;-58
2023/05/20 01:17:31;;;;;;;2.00;1.90;;;22.50;51.20;;;;;;5073960;28;20131;-58
2023/05/20 01:20:00;;;;;;;1.58;1.48;;;22.50;51.20;;;;;;5076183;28;20044;-58
2023/05/20 01:22:28;;;;;;;2.13;2.03;;;22.50;51.30;;;;;;5075132;28;20481;-58
2023/05/20 01:24:55;;;;;;;1.95;1.70;;;22.50;51.30;;;;;;5075081;28;20097;-56
2023/05/20 01:27:23;;;;;;;2.42;2.22;;;22.50;51.30;;;;;;5074631;28;20045;-58
2023/05/20 01:29:51;;;;;;;1.92;1.77;;;22.50;51.30;;;;;;5075834;28;20453;-58
2023/05/20 01:32:21;;;;;;;1.90;1.70;;;22.50;51.30;;;;;;5075169;28;20462;-58
2023/05/20 01:34:51;;;;;;;2.20;2.08;;;22.50;51.30;;;;;;5075444;28;20381;-58
2023/05/20 01:37:20;;;;;;;2.53;2.10;;;22.50;51.30;;;;;;5074976;28;20497;-58
2023/05/20 01:39:49;;;;;;;1.85;1.75;;;22.50;51.40;;;;;;5075877;28;20070;-58
2023/05/20 01:42:17;;;;;;;1.83;1.73;;;22.50;51.40;;;;;;5074545;28;20165;-59
2023/05/20 01:44:45;;;;;;;2.03;1.92;;;22.50;51.40;;;;;;5074659;28;20049;-58
2023/05/20 01:47:12;;;;;;;1.95;1.85;;;22.40;51.40;;;;;;5075138;28;20048;-58
2023/05/20 01:49:40;;;;;;;1.90;1.80;;;22.40;51.50;;;;;;5074588;28;20044;-58
2023/05/20 01:52:07;;;;;;;2.03;1.90;;;22.50;51.50;;;;;;5074713;28;20084;-58
2023/05/20 01:54:34;;;;;;;1.75;1.65;;;22.40;51.50;;;;;;5075608;28;20045;-58
2023/05/20 01:57:01;;;;;;;1.73;1.63;;;22.40;51.50;;;;;;5075595;28;20083;-58
2023/05/20 01:59:29;;;;;;;1.92;1.83;;;22.40;51.50;;;;;;5074437;28;20123;-58
2023/05/20 02:01:56;;;;;;;2.70;1.90;;;22.40;51.50;;;;;;5074494;28;20049;-58
2023/05/20 02:04:23;;;;;;;1.92;1.83;;;22.40;51.50;;;;;;5076004;28;20415;-58
2023/05/20 02:06:50;;;;;;;1.70;1.60;;;22.40;51.50;;;;;;5074436;28;20117;-58
2023/05/20 02:09:17;;;;;;;2.13;2.03;;;22.40;51.50;;;;;;5073916;28;20048;-58
2023/05/20 02:11:44;;;;;;;2.67;2.10;;;22.50;51.40;;;;;;5074967;28;20135;-58
2023/05/20 02:14:12;;;;;;;1.98;1.77;;;22.50;51.40;;;;;;5074667;28;20135;-58
2023/05/20 02:16:40;;;;;;;2.25;2.08;;;22.50;51.30;;;;;;5074281;28;20098;-58
2023/05/20 02:19:11;;;;;;;1.83;1.73;;;22.50;51.30;;;;;;5074738;28;20055;-58
2023/05/20 02:21:40;;;;;;;1.85;1.75;;;22.50;51.30;;;;;;5075654;28;20060;-58
2023/05/20 02:24:07;;;;;;;1.98;1.88;;;22.50;51.30;;;;;;5075167;28;20049;-58
2023/05/20 02:26:35;;;;;;;2.03;1.92;;;22.40;51.20;;;;;;5074854;28;20511;-58
2023/05/20 02:29:02;;;;;;;2.03;1.92;;;22.40;51.20;;;;;;5072836;28;20435;-58
2023/05/20 02:31:29;;;;;;;2.00;1.90;;;22.40;51.20;;;;;;5073796;28;20056;-58
2023/05/20 02:33:56;;;;;;;1.70;1.60;;;22.40;51.20;;;;;;5074651;28;20131;-58
2023/05/20 02:36:23;;;;;;;1.92;1.83;;;22.40;51.20;;;;;;5074436;28;20480;-58
2023/05/20 02:38:53;;;;;;;2.33;2.13;;;22.40;51.30;;;;;;5072875;28;20052;-58
2023/05/20 02:41:20;;;;;;;1.73;1.63;;;22.40;51.30;;;;;;5074698;28;20102;-57
2023/05/20 02:43:47;;;;;;;2.13;2.00;;;22.40;51.30;;;;;;5073354;28;20048;-58
2023/05/20 02:46:17;;;;;;;2.10;2.00;;;22.40;51.30;;;;;;5072242;28;20045;-58
2023/05/20 02:48:44;;;;;;;2.13;2.03;;;22.40;51.30;;;;;;5073730;28;20056;-58
2023/05/20 02:51:11;;;;;;;2.42;2.22;;;22.40;51.30;;;;;;5073133;28;20143;-58
2023/05/20 02:53:38;;;;;;;2.40;2.20;;;22.40;51.30;;;;;;5074546;28;20056;-58
2023/05/20 02:56:07;;;;;;;2.03;1.90;;;22.30;51.20;;;;;;5074356;28;20135;-58
2023/05/20 02:58:34;;;;;;;2.60;2.40;;;22.30;51.30;;;;;;5072893;28;20044;-58
2023/05/20 03:01:02;;;;;;;1.80;1.70;;;22.30;51.30;;;;;;5072732;28;20559;-58
2023/05/20 03:03:29;;;;;;;2.05;1.88;;;22.40;51.30;;;;;;5073261;28;20139;-57
2023/05/20 03:05:56;;;;;;;1.92;1.83;;;22.30;51.30;;;;;;5073313;28;20504;-57
2023/05/20 03:08:24;;;;;;;1.60;1.50;;;22.30;51.30;;;;;;5074358;28;20511;-57
2023/05/20 03:10:51;;;;;;;1.90;1.80;;;22.30;51.20;;;;;;5073855;28;20098;-58
2023/05/20 03:13:18;;;;;;;2.10;1.90;;;22.40;51.30;;;;;;5073616;28;20522;-57
2023/05/20 03:15:45;;;;;;;2.53;2.17;;;22.30;51.30;;;;;;5073094;28;20048;-58
2023/05/20 03:18:12;;;;;;;2.67;1.98;;;22.30;51.30;;;;;;5074275;28;20086;-57
2023/05/20 03:20:40;;;;;;;2.20;2.00;;;22.30;51.20;;;;;;5072779;28;20054;-57
2023/05/20 03:23:08;;;;;;;2.28;2.10;;;22.30;51.30;;;;;;5073147;28;20081;-57
2023/05/20 03:25:36;;;;;;;2.65;2.45;;;22.30;51.30;;;;;;5073222;28;20118;-58
2023/05/20 03:28:05;;;;;;;2.28;2.13;;;22.30;51.20;;;;;;5074053;28;20048;-57
2023/05/20 03:30:32;;;;;;;2.05;1.83;;;22.30;51.30;;;;;;5072367;28;20044;-57
2023/05/20 03:33:01;;;;;;;1.88;1.77;;;22.40;51.30;;;;;;5073097;28;20083;-57
2023/05/20 03:35:28;;;;;;;2.03;1.90;;;22.40;51.20;;;;;;5073313;28;20076;-57
2023/05/20 03:37:56;;;;;;;2.03;1.90;;;22.30;51.20;;;;;;5073238;28;20497;-57
2023/05/20 03:40:23;;;;;;;1.98;1.88;;;22.30;51.10;;;;;;5071335;28;20076;-57
2023/05/20 03:42:50;;;;;;;2.05;1.85;;;22.40;51.20;;;;;;5073210;28;20090;-57
2023/05/20 03:45:18;;;;;;;1.58;1.50;;;22.40;51.20;;;;;;5072373;28;20071;-57
2023/05/20 03:47:45;;;;;;;2.28;2.10;;;22.40;51.20;;;;;;5072359;28;20048;-57
2023/05/20 03:50:12;;;;;;;2.35;2.03;;;22.40;51.20;;;;;;5073588;28;20401;-57
2023/05/20 03:52:39;;;;;;;1.98;1.80;;;22.40;51.20;;;;;;5073667;28;20083;-58
2023/05/20 03:55:07;;;;;;;2.58;2.30;;;22.40;51.20;;;;;;5072895;28;20135;-57
2023/05/20 03:57:35;;;;;;;2.03;1.92;;;22.40;51.20;;;;;;5072475;28;20051;-57
2023/05/20 04:00:10;;;;;;;1.75;1.65;;;22.40;51.20;;;;;;5072792;28;20087;-57
2023/05/20 04:02:38;;;;;;;1.92;1.83;;;22.40;51.10;;;;;;5072297;28;20055;-57
2023/05/20 04:05:07;;;;;;;1.88;1.77;;;22.40;51.10;;;;;;5071639;28;20051;-57
2023/05/20 04:07:35;;;;;;;2.38;2.17;;;22.50;51.70;;;;;;5071840;28;20053;-57
2023/05/20 04:10:03;;;;;;;1.98;1.88;;;22.50;51.00;;;;;;5071913;28;20071;-58
2023/05/20 04:12:31;;;;;;;2.20;2.00;;;22.50;50.90;;;;;;5072315;28;20052;-58
2023/05/20 04:15:02;;;;;;;1.90;1.80;;;22.50;50.80;;;;;;5070995;28;20040;-58
2023/05/20 04:17:30;;;;;;;1.90;1.80;;;22.60;50.70;;;;;;5072844;28;20054;-58
2023/05/20 04:19:58;;;;;;;2.30;2.10;;;22.60;50.60;;;;;;5072936;28;20052;-58
2023/05/20 04:22:26;;;;;;;2.22;2.03;;;22.60;50.60;;;;;;5072091;28;20048;-57
2023/05/20 04:24:55;;;;;;;2.00;1.80;;;22.60;50.60;;;;;;5071617;28;20076;-57
2023/05/20 04:27:22;;;;;;;2.03;1.90;;;22.60;50.50;;;;;;5072116;28;20052;-57
2023/05/20 04:29:49;;;;;;;2.30;2.10;;;22.60;50.40;;;;;;5073404;28;20041;-58
2023/05/20 04:32:18;;;;;;;2.00;1.90;;;22.60;50.30;;;;;;5072860;28;20140;-58
2023/05/20 04:34:45;;;;;;;1.90;1.80;;;22.70;50.30;;;;;;5072263;28;20098;-58
2023/05/20 04:37:13;;;;;;;2.28;2.08;;;22.70;50.20;;;;;;5071513;28;20048;-57
2023/05/20 04:39:42;;;;;;;1.88;1.77;;;22.70;50.10;;;;;;5071371;28;20052;-57
2023/05/20 04:42:09;;;;;;;2.58;2.38;;;22.70;50.10;;;;;;5070508;28;20056;-56
2023/05/20 04:44:36;;;;;;;1.90;1.80;;;22.80;50.00;;;;;;5070777;28;20546;-57
2023/05/20 04:47:06;;;;;;;2.20;2.00;;;22.90;50.00;;;;;;5072254;28;20084;-57
2023/05/20 04:49:34;;;;;;;3.05;1.92;;;22.80;49.90;;;;;;5072911;28;20052;-57
2023/05/20 04:52:01;;;;;;;2.20;2.03;;;22.80;49.90;;;;;;5073647;28;20114;-58
2023/05/20 04:54:28;;;;;;;2.53;2.33;;;22.80;49.80;;;;;;5076776;28;20048;-57
2023/05/20 04:56:56;;;;;;;3.75;1.63;;;22.90;49.80;;;;;;5076849;28;20111;-57
2023/05/20 04:59:23;;;;;;;2.28;2.08;;;22.90;49.80;;;;;;5075015;28;20049;-57
2023/05/20 05:01:50;;;;;;;1.77;1.67;;;22.90;49.70;;;;;;5076221;28;20048;-58
2023/05/20 05:04:18;;;;;;;1.80;1.70;;;22.90;49.70;;;;;;5076654;28;20114;-57
2023/05/20 05:06:47;;;;;;;2.47;2.28;;;22.90;49.60;;;;;;5075470;28;20049;-57
2023/05/20 05:09:14;;;;;;;2.42;2.22;;;23.00;49.60;;;;;;5075898;28;20118;-57
2023/05/20 05:11:41;;;;;;;2.33;2.13;;;23.00;49.50;;;;;;5076165;28;20511;-57
2023/05/20 05:14:08;;;;;;;2.00;1.90;;;23.00;49.50;;;;;;5076720;28;20547;-57
2023/05/20 05:16:36;;;;;;;2.35;2.15;;;23.10;49.60;;;;;;5075508;28;20083;-57
2023/05/20 05:19:03;;;;;;;2.78;2.28;;;23.10;49.50;;;;;;5076317;28;20076;-57
2023/05/20 05:21:30;;;;;;;2.92;2.72;;;23.10;49.50;;;;;;5075284;28;20041;-57
2023/05/20 05:23:57;;;;;;;2.22;2.05;;;23.10;49.40;;;;;;5074877;28;20409;-58
2023/05/20 05:26:25;;;;;;;2.53;2.33;;;23.10;49.40;;;;;;5074261;28;20128;-57
2023/05/20 05:28:54;;;;;;;2.35;2.25;;;23.20;49.50;;;;;;5075102;28;20131;-57
2023/05/20 05:31:21;;;;;;;2.17;2.00;;;23.20;49.40;;;;;;5075411;28;20048;-58
2023/05/20 05:33:48;;;;;;;2.30;2.20;;;23.20;49.40;;;;;;5076310;28;20048;-58
2023/05/20 05:36:18;;;;;;;2.60;2.40;;;23.30;49.40;;;;;;5075872;28;20113;-56
2023/05/20 05:38:46;;;;;;;2.17;2.08;;;23.30;49.30;;;;;;5076559;28;20128;-58
2023/05/20 05:41:13;;;;;;;2.60;2.40;;;23.30;49.20;;;;;;5076083;28;20516;-57
2023/05/20 05:43:40;;;;;;;1.95;1.85;;;23.40;49.30;;;;;;5075981;28;20049;-57
2023/05/20 05:46:08;;;;;;;2.22;2.13;;;23.40;49.20;;;;;;5076285;28;20105;-57
2023/05/20 05:48:36;;;;;;;3.03;2.67;;;23.40;49.20;;;;;;5075754;28;20088;-57
2023/05/20 05:51:03;;;;;;;2.95;2.15;;;23.40;49.20;;;;;;5075361;28;20074;-58
2023/05/20 05:53:30;;;;;;;1.90;1.80;;;23.50;49.20;;;;;;5076240;28;20078;-57
2023/05/20 05:55:57;;;;;;;2.60;2.40;;;23.50;49.20;;;;;;5075598;28;20106;-59
2023/05/20 05:58:24;;;;;;;2.50;2.30;;;23.50;49.10;;;;;;5076179;28;20115;-58
2023/05/20 06:00:53;;;;;;;2.45;2.25;;;23.60;49.10;;;;;;5075377;28;20106;-58
2023/05/20 06:03:20;;;;;;;2.55;2.45;;;23.60;49.00;;;;;;5075495;28;20048;-56
2023/05/20 06:05:48;;;;;;;2.35;2.13;;;23.60;49.00;;;;;;5074855;28;20055;-58
2023/05/20 06:08:15;;;;;;;2.30;2.20;;;23.60;48.90;;;;;;5076063;28;20129;-57
2023/05/20 06:10:47;;;;;;;2.88;2.63;;;23.70;48.90;;;;;;5075407;28;20128;-57
2023/05/20 06:13:15;;;;;;;2.60;2.40;;;23.70;49.00;;;;;;5075158;28;20052;-57
2023/05/20 06:15:44;;;;;;;2.67;2.47;;;23.70;48.90;;;;;;5075506;28;20048;-56
2023/05/20 06:18:12;;;;;;;4.20;2.63;;;23.70;49.00;;;;;;5075521;28;20045;-57
2023/05/20 06:20:39;;;;;;;3.85;2.38;;;23.70;48.90;;;;;;5074986;28;20124;-57
2023/05/20 06:23:06;;;;;;;4.05;2.60;;;23.70;48.90;;;;;;5074934;28;20056;-57
2023/05/20 06:25:33;;;;;;;4.68;2.38;;;23.70;49.00;;;;;;5075210;28;20127;-57
2023/05/20 06:28:01;;;;;;;2.88;2.67;;;23.70;48.90;;;;;;5074268;28;20052;-57
2023/05/20 06:30:28;;;;;;;2.92;2.67;;;23.80;49.00;;;;;;5075206;28;20067;-57
2023/05/20 06:32:55;;;;;;;2.53;2.33;;;23.80;49.00;;;;;;5075569;28;20079;-57
2023/05/20 06:35:22;;;;;;;2.65;2.45;;;23.80;49.00;;;;;;5074513;28;20094;-57
2023/05/20 06:37:49;;;;;;;2.83;2.63;;;23.80;49.00;;;;;;5074730;28;20083;-57
2023/05/20 06:40:16;;;;;;;2.55;2.45;;;23.80;49.00;;;;;;5074166;28;20041;-57
2023/05/20 06:42:43;;;;;;;3.00;2.70;;;23.80;49.00;;;;;;5075340;28;20117;-57
2023/05/20 06:45:11;;;;;;;2.85;2.53;;;23.80;49.00;;;;;;5074813;28;20090;-57
2023/05/20 06:47:38;;;;;;;2.90;2.70;;;23.80;49.00;;;;;;5074353;28;20044;-57
2023/05/20 06:50:05;;;;;;;3.15;2.85;;;23.90;49.10;;;;;;5074564;28;20044;-57
2023/05/20 06:52:32;;;;;;;2.60;2.40;;;23.90;49.00;;;;;;5074357;28;20047;-58
2023/05/20 06:54:59;;;;;;;3.15;2.90;;;23.90;49.10;;;;;;5073045;28;20087;-57
2023/05/20 06:57:26;;;;;;;3.45;3.15;;;23.90;49.00;;;;;;5054396;28;20056;-57
2023/05/20 06:59:53;;;;;;;3.40;3.08;;;23.90;49.00;;;;;;5066973;28;20059;-57
2023/05/20 07:02:22;;;;;;;3.65;3.05;;;23.90;49.00;;;;;;5073653;28;20055;-57
2023/05/20 07:04:49;;;;;;;2.92;2.72;;;23.90;49.00;;;;;;5074715;28;20047;-57
2023/05/20 07:07:16;;;;;;;3.30;2.92;;;23.90;49.00;;;;;;5075025;28;20114;-57
2023/05/20 07:09:44;;;;;;;3.03;2.83;;;23.90;49.00;;;;;;5074556;28;20054;-57
2023/05/20 07:12:11;;;;;;;3.35;3.10;;;23.90;49.00;;;;;;5073150;28;20041;-58
2023/05/20 07:14:38;;;;;;;3.03;2.80;;;24.00;49.10;;;;;;5072790;28;20044;-57
2023/05/20 07:17:05;;;;;;;3.65;3.28;;;24.00;49.10;;;;;;5073769;28;20079;-57
2023/05/20 07:19:33;;;;;;;3.28;2.97;;;24.00;49.10;;;;;;5072930;28;20131;-57
2023/05/20 07:22:00;;;;;;;2.90;2.70;;;24.00;49.10;;;;;;5072234;28;20045;-55
2023/05/20 07:24:27;;;;;;;3.60;3.25;;;24.00;49.10;;;;;;5073704;28;20057;-58
2023/05/20 07:26:54;;;;;;;3.20;2.90;;;24.10;49.20;;;;;;5067688;28;20055;-58
2023/05/20 07:29:21;;;;;;;3.45;3.00;;;24.10;49.20;;;;;;5067433;28;20068;-57
2023/05/20 07:31:48;;;;;;;3.25;2.88;;;24.10;49.30;;;;;;5072413;28;20076;-57
2023/05/20 07:34:15;;;;;;;3.28;2.97;;;24.10;49.20;;;;;;5073372;28;20397;-57
2023/05/20 07:36:43;;;;;;;3.47;3.17;;;24.10;49.20;;;;;;5072931;28;20044;-57
2023/05/20 07:39:10;;;;;;;3.30;3.00;;;24.10;49.20;;;;;;5073349;28;20071;-57
2023/05/20 07:41:40;;;;;;;;;;;24.10;49.30;;;;;;5073617;28;20396;-57
2023/05/20 07:44:10;;;;;;;3.22;2.92;;;24.10;49.20;;;;;;5073479;28;20012;-58
2023/05/20 07:46:37;;;;;;;3.40;3.10;;;24.10;49.20;;;;;;5071233;28;20066;-57
2023/05/20 07:49:04;;;;;;;3.55;3.17;;;24.10;49.70;;;;;;5070855;28;20086;-57
2023/05/20 07:51:32;;;;;;;2.92;2.72;;;24.20;49.20;;;;;;5072902;28;20041;-57
2023/05/20 07:53:59;;;;;;;2.95;2.75;;;24.20;49.10;;;;;;5073589;28;20450;-57
2023/05/20 07:56:27;;;;;;;3.60;3.30;;;24.20;49.10;;;;;;5073058;28;20048;-57
2023/05/20 07:58:57;;;;;;;4.47;3.08;;;24.20;49.20;;;;;;5073494;28;20045;-57
2023/05/20 08:01:25;;;;;;;3.42;2.95;;;24.20;49.10;;;;;;5072071;28;20139;-57
2023/05/20 08:03:52;;;;;;;3.22;3.03;;;24.20;49.10;;;;;;5072414;28;20052;-57
2023/05/20 08:06:20;;;;;;;3.45;3.15;;;24.20;49.10;;;;;;5073170;28;20048;-57
2023/05/20 08:08:47;;;;;;;3.28;2.97;;;24.20;49.10;;;;;;5072990;28;20444;-57
2023/05/20 08:11:14;;;;;;;3.53;3.20;;;24.30;49.20;;;;;;5073546;28;20472;-57
2023/05/20 08:13:41;;;;;;;3.38;3.13;;;24.30;49.20;;;;;;5073155;28;20128;-57
2023/05/20 08:16:08;;;;;;;3.40;2.83;;;24.30;49.20;;;;;;5070963;28;20044;-57
2023/05/20 08:18:36;;;;;;;3.28;3.00;;;24.30;49.30;;;;;;5071611;28;20045;-57
2023/05/20 08:21:06;;;;;;;3.50;3.20;;;24.30;49.30;;;;;;5072850;28;20044;-57
2023/05/20 08:23:34;;;;;;;2.95;2.70;;;24.30;49.30;;;;;;5072242;28;20052;-57
2023/05/20 08:26:06;;;;;;;3.53;3.17;;;24.30;49.20;;;;;;5072517;28;20102;-57
2023/05/20 08:28:35;;;;;;;4.82;3.13;;;24.30;49.20;;;;;;5072596;28;20052;-57
2023/05/20 08:31:03;;;;;;;3.35;3.05;;;24.30;49.20;;;;;;5072264;28;20083;-56
2023/05/20 08:33:30;;;;;;;3.25;2.95;;;24.30;49.20;;;;;;5072256;28;20102;-57
2023/05/20 08:35:57;;;;;;;3.78;3.38;;;24.40;49.20;;;;;;5070776;28;20052;-57
2023/05/20 08:38:25;;;;;;;3.40;3.10;;;24.30;49.30;;;;;;5071484;28;20108;-57
2023/05/20 08:40:55;;;;;;;3.28;2.75;;;24.40;49.30;;;;;;5072620;28;20124;-57
2023/05/20 08:43:23;;;;;;;3.30;3.00;;;24.40;49.20;;;;;;5071875;28;20040;-56
2023/05/20 08:45:51;;;;;;;3.50;3.20;;;24.40;49.20;;;;;;5061399;28;20127;-58
2023/05/20 08:48:21;;;;;;;3.78;3.05;;;24.40;49.80;;;;;;5071973;28;20163;-58
2023/05/20 08:50:50;;;;;;;5.22;3.08;;;24.40;49.20;;;;;;5071288;28;20113;-58
2023/05/20 08:53:20;;;;;;;3.80;3.45;;;24.40;49.20;;;;;;5071910;28;20143;-57
2023/05/20 08:55:56;;;;;;;4.00;3.45;;;24.40;49.20;;;;;;5071452;28;20057;-57
2023/05/20 08:58:31;;;;;;;4.53;3.63;;;24.40;49.10;;;;;;5072370;28;20052;-58
2023/05/20 09:00:59;;;;;;;4.05;3.65;;;24.40;49.10;;;;;;5072139;28;20171;-57
2023/05/20 09:03:26;;;;;;;3.22;2.92;;;24.40;49.10;;;;;;5072205;28;20079;-58
2023/05/20 09:06:02;;;;;;;3.58;3.28;;;24.40;49.10;;;;;;5071053;28;20473;-58
2023/05/20 09:08:30;;;;;;;3.50;3.13;;;24.50;49.20;;;;;;5071964;28;20048;-58
2023/05/20 09:10:57;;;;;;;3.40;3.10;;;24.40;49.10;;;;;;5071602;28;20036;-57
2023/05/20 09:13:25;;;;;;;3.38;3.08;;;24.40;49.10;;;;;;5071717;28;20106;-57
2023/05/20 09:15:53;;;;;;;3.15;2.88;;;24.40;49.00;;;;;;5073002;28;20099;-58
2023/05/20 09:18:20;;;;;;;3.25;2.95;;;24.50;49.10;;;;;;5072681;28;20477;-57
2023/05/20 09:20:54;;;;;;;3.30;2.97;;;24.50;49.10;;;;;;5072625;28;20055;-58
2023/05/20 09:23:21;;;;;;;3.75;3.20;;;24.50;49.10;;;;;;5071977;28;20080;-58
2023/05/20 09:25:50;;;;;;;3.50;3.20;;;24.50;49.10;;;;;;5071196;28;20127;-57
2023/05/20 09:28:26;;;;;;;4.07;3.70;;;24.50;49.10;;;;;;5072810;28;20052;-56
2023/05/20 09:31:00;;;;;;;3.58;3.28;;;24.50;49.10;;;;;;5070780;28;20048;-58
2023/05/20 09:33:29;;;;;;;3.95;3.55;;;24.50;49.10;;;;;;5072139;28;20098;-57
2023/05/20 09:36:04;;;;;;;4.00;3.60;;;24.50;49.10;;;;;;5071672;28;20076;-57
2023/05/20 09:38:37;;;;;;;4.55;3.45;;;24.50;49.10;;;;;;5073582;28;20040;-58
2023/05/20 09:41:12;;;;;;;3.60;3.22;;;24.50;49.00;;;;;;5073894;28;20500;-58
2023/05/20 09:43:40;;;;;;;4.95;3.80;;;24.50;49.00;;;;;;5075458;28;20052;-57
2023/05/20 09:46:08;;;;;;;3.83;3.35;;;24.50;49.50;;;;;;5074744;28;20197;-56
2023/05/20 09:48:36;;;;;;;3.20;2.90;;;24.60;49.00;;;;;;5076390;28;20078;-58
2023/05/20 09:51:05;;;;;;;4.00;3.58;;;24.60;48.90;;;;;;5076217;28;20051;-57
2023/05/20 09:53:32;;;;;;;4.20;3.38;;;24.60;49.00;;;;;;5075628;28;20454;-57
2023/05/20 09:56:00;;;;;;;4.97;3.20;;;24.60;48.90;;;;;;5075890;28;20048;-57
2023/05/20 09:58:28;;;;;;;3.33;3.08;;;24.60;48.90;;;;;;5075885;28;20102;-57
2023/05/20 10:00:56;;;;;;;5.05;3.38;;;24.60;48.90;;;;;;5075062;28;20059;-57
2023/05/20 10:03:26;;;;;;;4.32;3.50;;;24.70;48.90;;;;;;5075543;28;20447;-58
2023/05/20 10:06:24;;;;;;;5.68;3.53;;;24.70;48.90;;;;;;5073534;28;20059;-57
2023/05/20 10:09:18;;;;;;;3.75;3.45;;;24.70;48.90;;;;;;5074336;28;20480;-58
2023/05/20 10:12:24;;;;;;;3.70;3.40;;;24.70;48.80;;;;;;5074358;28;20140;-58
2023/05/20 10:15:22;;;;;;;4.32;3.90;;;24.70;48.80;;;;;;5073422;28;20053;-57
2023/05/20 10:18:29;;;;;;;4.20;3.63;;;24.70;48.80;;;;;;5074462;28;20045;-57
2023/05/20 10:20:56;;;;;;;4.10;3.70;;;24.70;48.80;;;;;;5073388;28;20080;-57
2023/05/20 10:23:27;;;;;;;3.67;3.38;;;24.70;48.80;;;;;;5073747;28;20451;-58
2023/05/20 10:25:57;;;;;;;4.80;3.88;;;24.70;48.80;;;;;;5055127;28;20045;-58
2023/05/20 10:28:31;;;;;;;5.65;4.25;;;24.70;48.80;;;;;;5054591;28;20497;-58
2023/05/20 10:30:59;;;;;;;4.22;3.58;;;24.70;48.80;;;;;;5054051;28;20076;-59
2023/05/20 10:33:27;;;;;;;5.75;3.78;;;24.70;48.80;;;;;;5054988;28;20048;-58
2023/05/20 10:35:58;;;;;;;4.10;3.70;;;24.80;48.80;;;;;;5053486;28;20501;-58
2023/05/20 10:38:25;;;;;;;3.97;3.22;;;24.80;48.80;;;;;;5054993;28;20072;-58
2023/05/20 10:40:52;;;;;;;4.45;3.92;;;24.80;48.80;;;;;;5053907;28;20049;-59
2023/05/20 10:43:27;;;;;;;5.50;3.38;;;24.80;48.80;;;;;;5054736;28;20099;-56
2023/05/20 10:45:56;;;;;;;4.38;3.97;;;24.70;48.80;;;;;;5053982;28;20103;-56
2023/05/20 10:48:29;;;;;;;4.70;4.22;;;24.70;48.90;;;;;;5054051;28;20511;-56
2023/05/20 10:50:58;;;;;;;3.83;3.45;;;24.80;48.90;;;;;;5051537;28;20132;-56
2023/05/20 10:53:27;;;;;;;3.78;3.45;;;24.70;48.80;;;;;;5054121;28;20149;-55
2023/05/20 10:56:00;;;;;;;4.03;3.63;;;24.80;48.80;;;;;;5053832;28;20060;-56
2023/05/20 10:58:35;;;;;;;4.38;3.97;;;24.80;48.70;;;;;;5053417;28;20446;-56
2023/05/20 11:01:02;;;;;;;3.90;3.53;;;24.80;48.70;;;;;;5053278;28;20080;-56
2023/05/20 11:03:30;;;;;;;4.43;4.03;;;24.80;48.70;;;;;;5054683;28;20052;-56
2023/05/20 11:05:57;;;;;;;4.53;3.97;;;24.80;48.60;;;;;;5053058;28;20147;-56
2023/05/20 11:08:32;;;;;;;4.72;4.07;;;24.90;48.60;;;;;;5054272;28;20079;-56
2023/05/20 11:11:00;;;;;;;5.30;4.25;;;24.90;48.60;;;;;;5053692;28;20447;-56
2023/05/20 11:13:28;;;;;;;3.78;3.45;;;24.90;48.60;;;;;;5054881;28;20137;-56
2023/05/20 11:15:55;;;;;;;4.22;3.83;;;24.90;48.50;;;;;;5054055;28;20102;-56
2023/05/20 11:18:22;;;;;;;4.20;3.78;;;24.90;48.50;;;;;;5054639;28;20045;-56
2023/05/20 11:20:49;;;;;;;4.10;3.70;;;24.90;48.40;;;;;;5052955;28;20084;-57
2023/05/20 11:23:17;;;;;;;4.43;3.47;;;24.90;48.40;;;;;;5053783;28;20106;-56
2023/05/20 11:25:44;;;;;;;5.78;4.13;;;24.90;48.30;;;;;;5053953;28;20045;-56
2023/05/20 11:28:14;;;;;;;5.97;4.13;;;24.90;48.20;;;;;;5054005;28;20083;-56
2023/05/20 11:30:42;;;;;;;4.95;4.53;;;24.90;48.20;;;;;;5054412;28;20060;-56
2023/05/20 11:33:12;;;;;;;4.30;3.88;;;24.90;48.10;;;;;;5054024;28;20056;-56
2023/05/20 11:35:53;;;;;;;4.35;3.95;;;25.00;48.10;;;;;;5053546;28;20052;-56
2023/05/20 11:38:20;;;;;;;4.88;4.40;;;25.00;48.10;;;;;;5053409;28;20064;-56
2023/05/20 11:40:53;;;;;;;6.10;4.10;;;25.00;48.00;;;;;;5054242;28;20499;-56
2023/05/20 11:43:22;;;;;;;5.07;4.10;;;25.00;47.90;;;;;;5054310;28;20512;-56
2023/05/20 11:45:59;;;;;;;4.30;3.90;;;25.10;47.90;;;;;;5051672;28;20124;-56
2023/05/20 11:48:27;;;;;;;3.95;3.58;;;25.10;47.90;;;;;;5053514;28;20045;-56
2023/05/20 11:50:55;;;;;;;4.40;4.00;;;25.10;47.80;;;;;;5053577;28;20493;-58
2023/05/20 11:53:23;;;;;;;5.47;3.90;;;25.10;47.70;;;;;;5053238;28;20515;-56
2023/05/20 11:55:53;;;;;;;4.43;4.03;;;25.10;47.70;;;;;;5052212;28;20049;-56
2023/05/20 11:58:22;;;;;;;4.55;4.15;;;25.10;47.60;;;;;;5053908;28;20081;-56
2023/05/20 12:00:50;;;;;;;4.90;4.28;;;25.10;47.60;;;;;;5051200;28;20072;-56
2023/05/20 12:03:27;;;;;;;5.20;4.38;;;25.10;47.60;;;;;;5052744;28;20071;-56
2023/05/20 12:05:55;;;;;;;5.35;4.13;;;25.10;47.50;;;;;;5052849;28;20049;-56
2023/05/20 12:08:22;;;;;;;4.75;4.25;;;25.10;47.50;;;;;;5053153;28;20052;-56
2023/05/20 12:10:49;;;;;;;4.32;3.92;;;25.10;47.50;;;;;;5053101;28;20060;-56
2023/05/20 12:13:18;;;;;;;4.60;4.10;;;25.20;47.50;;;;;;5052619;28;20148;-56
2023/05/20 12:15:45;;;;;;;4.57;4.18;;;25.20;47.50;;;;;;5053091;28;20045;-56
2023/05/20 12:18:12;;;;;;;5.80;4.05;;;25.20;47.50;;;;;;5053500;28;20049;-55
2023/05/20 12:20:39;;;;;;;4.90;4.47;;;25.20;47.50;;;;;;5052717;28;20049;-56
2023/05/20 12:23:06;;;;;;;4.13;3.72;;;25.20;47.50;;;;;;5052336;28;20049;-56
2023/05/20 12:25:33;;;;;;;4.75;4.25;;;25.20;47.40;;;;;;5053168;28;20166;-57
2023/05/20 12:28:01;;;;;;;4.88;4.25;;;25.20;47.50;;;;;;5050980;28;20044;-58
2023/05/20 12:30:28;;;;;;;4.78;3.92;;;25.20;47.40;;;;;;5052026;28;20132;-56
2023/05/20 12:32:55;;;;;;;4.32;3.92;;;25.20;47.50;;;;;;5052805;28;20371;-56
2023/05/20 12:35:37;;;;;;;4.80;4.30;;;25.20;47.50;;;;;;5052460;28;20059;-56
2023/05/20 12:38:05;;;;;;;4.90;4.40;;;25.20;47.50;;;;;;5052746;28;20045;-56
2023/05/20 12:40:33;;;;;;;5.05;4.35;;;25.20;47.50;;;;;;5052170;28;20072;-56
2023/05/20 12:43:03;;;;;;;5.45;4.75;;;25.20;47.50;;;;;;5051904;28;20053;-56
2023/05/20 12:45:30;;;;;;;5.85;4.25;;;25.20;47.50;;;;;;5051507;28;20049;-56
2023/05/20 12:47:58;;;;;;;4.60;3.80;;;25.20;47.50;;;;;;5052941;28;20135;-57
2023/05/20 12:50:26;;;;;;;4.65;4.15;;;25.20;47.40;;;;;;5052370;28;20053;-56
2023/05/20 12:52:53;;;;;;;4.07;3.78;;;25.20;47.40;;;;;;5052326;28;20386;-56
2023/05/20 12:55:21;;;;;;;4.55;4.10;;;25.20;47.40;;;;;;5051052;28;20049;-55